Crown Princess — ZCDM6 — position and weather

sailwx.info

Track history (hours):
 
Tides and Currents Weather Stations Pressure Air Temp Water Temp Dewpoint Dewpoint Depression Visibility Wind Speed Wind Dir Waves Ship Positions

Crown Princess

Last reported at 2020-Apr-03 03:00 UTC. Time now 2020-Apr-03 07:22 UTC.
Position N 26°06' W 079°00'.

Type: Pleasure craft. MMSI: 310500000.

Wind from 050 at 10 knots

Barometer 1015.0 mb
Air temperature 22.0 ° C
Visibility: greater than 10.8 NM
Dewpoint 20.6 ° C
Water temperature 28.0 ° C

Date/timePositionNaut miles runAvg speedWind from/ knotsBaromVisibWave heightAir tempDewpointWater temp
2020-Apr-03 03:00N 26°06' W 079°00'0 0.0 050 / 101015.010.8 22.020.628.0
2020-Apr-02 23:00N 26°06' W 079°00'15 1.2 030 / 81014.010.8 22.520.328.0
2020-Apr-02 10:19N 26°07' W 079°17'810.0
2020-Apr-02 09:30N 26°07' W 079°26'13 8.5
2020-Apr-02 07:59N 26°19' W 079°20'4 8.5
2020-Apr-02 07:30N 26°23' W 079°23'8 3.9
2020-Apr-02 05:30N 26°18' W 079°29'3511.7
2020-Apr-02 02:30N 25°45' W 079°43'611.1
2020-Apr-02 02:00N 25°40' W 079°45'9 3.1
2020-Apr-01 23:00N 25°31' W 079°41'1 2.4
2020-Apr-01 22:30N 25°30' W 079°40'2 2.1
2020-Apr-01 21:30N 25°29' W 079°39'1 1.8
2020-Apr-01 21:00N 25°28' W 079°38'2 0.8
2020-Apr-01 18:30N 25°26' W 079°38'0 0.8
2020-Apr-01 17:56N 25°25' W 079°38'1 0.8
2020-Apr-01 17:00N 25°25' W 079°39'0 0.3
2020-Apr-01 16:30N 25°24' W 079°39'48 8.1
2020-Apr-01 10:30N 26°13' W 079°37'20 7.8
2020-Apr-01 08:00N 26°32' W 079°37'4 7.5
2020-Apr-01 07:24N 26°37' W 079°37'33 3.5
2020-Mar-31 22:01N 26°09' W 079°56'1010.0
2020-Mar-31 21:01N 26°06' W 080°07'1 1.0
2020-Mar-31 20:30N 26°06' W 080°07'0 0.0
2020-Mar-31 18:00N 26°06' W 080°07'0 0.0
2020-Mar-31 16:30N 26°06' W 080°07'0 0.0
2020-Mar-31 16:00N 26°06' W 080°07'0 0.0
2020-Mar-31 11:30N 26°06' W 080°07'0 0.0
2020-Mar-31 11:00N 26°06' W 080°07'5 5.4
2020-Mar-31 10:00N 26°06' W 080°01'612.4
2020-Mar-31 09:30N 26°06' W 079°54'1211.6
2020-Mar-31 08:30N 26°15' W 079°48'1110.7
2020-Mar-31 07:30N 26°26' W 079°46'1110.8
2020-Mar-31 06:30N 26°35' W 079°39'2411.6
2020-Mar-31 04:25N 26°57' W 079°28'5 5.3
2020-Mar-31 03:30N 26°60' W 079°24'3714.6
2020-Mar-31 01:00N 26°23' W 079°24'2112.0
2020-Mar-30 23:17N 26°07' W 079°10'4 0.3
2020-Mar-30 06:00N 26°07' W 079°05'0 0.0
2020-Mar-29 12:23N 26°07' W 079°05'0 0.0
2020-Mar-29 11:30N 26°07' W 079°04'0 0.0
2020-Mar-28 20:59N 26°07' W 079°04'0 0.0
2020-Mar-28 19:22N 26°07' W 079°04'0 0.0
2020-Mar-28 15:30N 26°07' W 079°04'0 0.0
2020-Mar-28 12:26N 26°07' W 079°04'0 0.0
2020-Mar-28 12:00N 26°07' W 079°04'0 0.0
2020-Mar-28 11:26N 26°07' W 079°04'0 0.0
2020-Mar-28 08:27N 26°07' W 079°04'0 0.0
2020-Mar-28 05:57N 26°07' W 079°04'0 0.0
2020-Mar-26 10:56N 26°07' W 079°04'8 8.2
2020-Mar-26 10:00N 26°07' W 079°13'610.7
2020-Mar-26 09:25N 26°08' W 079°20'10 7.1
2020-Mar-26 08:00N 26°14' W 079°28'5 9.5
2020-Mar-26 07:30N 26°10' W 079°31'612.5
2020-Mar-26 07:00N 26°05' W 079°35'612.3
2020-Mar-26 06:30N 25°59' W 079°35'612.7
2020-Mar-26 06:00N 25°52' W 079°36'612.0
2020-Mar-26 05:30N 25°47' W 079°35'1212.1
2020-Mar-26 04:30N 25°35' W 079°33'1211.6
2020-Mar-26 03:30N 25°23' W 079°30'15 3.3
2020-Mar-25 23:00N 25°11' W 079°39'19 7.6
2020-Mar-25 20:30N 25°30' W 079°39'36 7.1
2020-Mar-25 15:30N 26°06' W 079°35'15 7.4
2020-Mar-25 13:30N 26°20' W 079°29'4 7.6
2020-Mar-25 13:00N 26°23' W 079°29'8 0.7
2020-Mar-25 01:13N 26°28' W 079°22'412.9
2020-Mar-25 00:55N 26°25' W 079°22'512.9
2020-Mar-25 00:30N 26°19' W 079°22'13 9.0
2020-Mar-24 23:00N 26°08' W 079°14'  
Track history (hours):
 
Tides and Currents Weather Stations Pressure Air Temp Water Temp Dewpoint Dewpoint Depression Visibility Wind Speed Wind Dir Waves Ship Positions

Crown Princess

Last reported at 2020-Apr-03 03:00 UTC. Time now 2020-Apr-03 07:22 UTC.
Position N 26°06' W 079°00'.

Type: Pleasure craft. MMSI: 310500000.

Wind from 050 at 10 knots

Barometer 1015.0 mb
Air temperature 22.0 ° C
Visibility: greater than 10.8 NM
Dewpoint 20.6 ° C
Water temperature 28.0 ° C

Date/timePositionNaut miles runAvg speedWind from/ knotsBaromVisibWave heightAir tempDewpointWater temp
2020-Apr-03 03:00N 26°06' W 079°00'0 0.0 050 / 101015.010.8 22.020.628.0
2020-Apr-02 23:00N 26°06' W 079°00'15 1.2 030 / 81014.010.8 22.520.328.0
2020-Apr-02 10:19N 26°07' W 079°17'810.0
2020-Apr-02 09:30N 26°07' W 079°26'13 8.5
2020-Apr-02 07:59N 26°19' W 079°20'4 8.5
2020-Apr-02 07:30N 26°23' W 079°23'8 3.9
2020-Apr-02 05:30N 26°18' W 079°29'3511.7
2020-Apr-02 02:30N 25°45' W 079°43'611.1
2020-Apr-02 02:00N 25°40' W 079°45'9 3.1
2020-Apr-01 23:00N 25°31' W 079°41'1 2.4
2020-Apr-01 22:30N 25°30' W 079°40'2 2.1
2020-Apr-01 21:30N 25°29' W 079°39'1 1.8
2020-Apr-01 21:00N 25°28' W 079°38'2 0.8
2020-Apr-01 18:30N 25°26' W 079°38'0 0.8
2020-Apr-01 17:56N 25°25' W 079°38'1 0.8
2020-Apr-01 17:00N 25°25' W 079°39'0 0.3
2020-Apr-01 16:30N 25°24' W 079°39'48 8.1
2020-Apr-01 10:30N 26°13' W 079°37'20 7.8
2020-Apr-01 08:00N 26°32' W 079°37'4 7.5
2020-Apr-01 07:24N 26°37' W 079°37'33 3.5
2020-Mar-31 22:01N 26°09' W 079°56'1010.0
2020-Mar-31 21:01N 26°06' W 080°07'1 1.0
2020-Mar-31 20:30N 26°06' W 080°07'0 0.0
2020-Mar-31 18:00N 26°06' W 080°07'0 0.0
2020-Mar-31 16:30N 26°06' W 080°07'0 0.0
2020-Mar-31 16:00N 26°06' W 080°07'0 0.0
2020-Mar-31 11:30N 26°06' W 080°07'0 0.0
2020-Mar-31 11:00N 26°06' W 080°07'5 5.4
2020-Mar-31 10:00N 26°06' W 080°01'612.4
2020-Mar-31 09:30N 26°06' W 079°54'1211.6
2020-Mar-31 08:30N 26°15' W 079°48'1110.7
2020-Mar-31 07:30N 26°26' W 079°46'1110.8
2020-Mar-31 06:30N 26°35' W 079°39'2411.6
2020-Mar-31 04:25N 26°57' W 079°28'5 5.3
2020-Mar-31 03:30N 26°60' W 079°24'3714.6
2020-Mar-31 01:00N 26°23' W 079°24'2112.0
2020-Mar-30 23:17N 26°07' W 079°10'4 0.3
2020-Mar-30 06:00N 26°07' W 079°05'0 0.0
2020-Mar-29 12:23N 26°07' W 079°05'0 0.0
2020-Mar-29 11:30N 26°07' W 079°04'0 0.0
2020-Mar-28 20:59N 26°07' W 079°04'0 0.0
2020-Mar-28 19:22N 26°07' W 079°04'0 0.0
2020-Mar-28 15:30N 26°07' W 079°04'0 0.0
2020-Mar-28 12:26N 26°07' W 079°04'0 0.0
2020-Mar-28 12:00N 26°07' W 079°04'0 0.0
2020-Mar-28 11:26N 26°07' W 079°04'0 0.0
2020-Mar-28 08:27N 26°07' W 079°04'0 0.0
2020-Mar-28 05:57N 26°07' W 079°04'0 0.0
2020-Mar-26 10:56N 26°07' W 079°04'8 8.2
2020-Mar-26 10:00N 26°07' W 079°13'610.7
2020-Mar-26 09:25N 26°08' W 079°20'10 7.1
2020-Mar-26 08:00N 26°14' W 079°28'5 9.5
2020-Mar-26 07:30N 26°10' W 079°31'612.5
2020-Mar-26 07:00N 26°05' W 079°35'612.3
2020-Mar-26 06:30N 25°59' W 079°35'612.7
2020-Mar-26 06:00N 25°52' W 079°36'612.0
2020-Mar-26 05:30N 25°47' W 079°35'1212.1
2020-Mar-26 04:30N 25°35' W 079°33'1211.6
2020-Mar-26 03:30N 25°23' W 079°30'15 3.3
2020-Mar-25 23:00N 25°11' W 079°39'19 7.6
2020-Mar-25 20:30N 25°30' W 079°39'36 7.1
2020-Mar-25 15:30N 26°06' W 079°35'15 7.4
2020-Mar-25 13:30N 26°20' W 079°29'4 7.6
2020-Mar-25 13:00N 26°23' W 079°29'8 0.7
2020-Mar-25 01:13N 26°28' W 079°22'412.9
2020-Mar-25 00:55N 26°25' W 079°22'512.9
2020-Mar-25 00:30N 26°19' W 079°22'13 9.0
2020-Mar-24 23:00N 26°08' W 079°14'  

Dump ship's entire track history